METAR Data
IDs: Format: Raw Decoded Include TAF

Data at: 2055 UTC 08 Aug 2020

KGEU 081952Z 26003KT 10SM FEW120 42/02 A2988
KGEU 081847Z VRB03KT 10SM FEW120 39/03 A2990
KGEU 081747Z VRB04KT 10SM FEW120 38/06 A2992
KGEU 081647Z VRB04KT 10SM FEW120 37/06 A2993
KGEU 081547Z 00000KT 10SM FEW120 34/06 A2993
KGEU 081447Z 30005KT 10SM FEW120 32/04 A2993
KGEU 081347Z 28004KT 10SM FEW120 29/00 A2991 RMK FIRST
KGEU 080250Z 19003KT 10SM FEW120 39/10 A2979 RMK LAST
KGEU 080148Z 19006KT 10SM FEW120 41/10 A2979
KGEU 080049Z 22005G18KT 10SM FEW120 42/08 A2978
KGEU 072350Z 21005G15KT 10SM FEW120 42/09 A2979
KGEU 072252Z 20010G15KT 10SM FEW120 42/09 A2981
KGEU 072147Z 13008KT 10SM SKC 41/09 A2983
KGEU 072048Z 14004KT 10SM SKC 40/10 A2985
KGEU 071955Z 20003KT 10SM SKC 38/11 A2988
KGEU 071848Z 00000KT 10SM SKC 37/11 A2989
KGEU 071747Z 08004KT 10SM SKC 37/13 A2991
KGEU 071648Z 00000KT 10SM SKC 35/12 A2991
KGEU 071548Z 00000KT 10SM FEW250 34/11 A2990
KGEU 071447Z 00000KT 10SM FEW250 32/06 A2989
KGEU 071358Z 00000KT 10SM FEW250 30/04 A2987
KGEU 071250Z 00000KT 10SM FEW250 27/03 A2985 RMK FIRST